sensor_id;sensor_type;location;lat;lon;timestamp;temperature;humidity
38131;DHT22;23947;51.894;4.622;2023-02-04T00:00:58;7.50;1.40
38131;DHT22;23947;51.894;4.622;2023-02-04T00:03:24;7.50;1.40
38131;DHT22;23947;51.894;4.622;2023-02-04T00:05:50;7.50;1.40
38131;DHT22;23947;51.894;4.622;2023-02-04T00:08:15;7.40;1.40
38131;DHT22;23947;51.894;4.622;2023-02-04T00:10:41;7.40;1.40
38131;DHT22;23947;51.894;4.622;2023-02-04T00:13:06;7.40;1.40
38131;DHT22;23947;51.894;4.622;2023-02-04T00:15:32;7.50;1.40
38131;DHT22;23947;51.894;4.622;2023-02-04T00:17:57;7.40;1.40
38131;DHT22;23947;51.894;4.622;2023-02-04T00:20:23;7.40;1.40
38131;DHT22;23947;51.894;4.622;2023-02-04T00:22:48;7.50;1.40
38131;DHT22;23947;51.894;4.622;2023-02-04T00:25:15;7.40;1.40
38131;DHT22;23947;51.894;4.622;2023-02-04T00:27:41;7.50;1.40
38131;DHT22;23947;51.894;4.622;2023-02-04T00:30:07;7.50;1.40
38131;DHT22;23947;51.894;4.622;2023-02-04T00:32:33;7.50;1.40
38131;DHT22;23947;51.894;4.622;2023-02-04T00:34:59;7.50;1.40
38131;DHT22;23947;51.894;4.622;2023-02-04T00:37:26;7.50;1.40
38131;DHT22;23947;51.894;4.622;2023-02-04T00:39:51;7.50;1.40
38131;DHT22;23947;51.894;4.622;2023-02-04T00:42:17;7.50;1.40
38131;DHT22;23947;51.894;4.622;2023-02-04T00:44:42;7.50;1.40
38131;DHT22;23947;51.894;4.622;2023-02-04T00:47:07;7.40;1.40
38131;DHT22;23947;51.894;4.622;2023-02-04T00:49:33;7.50;1.40
38131;DHT22;23947;51.894;4.622;2023-02-04T00:51:59;7.40;1.40
38131;DHT22;23947;51.894;4.622;2023-02-04T00:54:25;7.40;1.40
38131;DHT22;23947;51.894;4.622;2023-02-04T00:56:50;7.40;1.40
38131;DHT22;23947;51.894;4.622;2023-02-04T00:59:16;7.40;1.40
38131;DHT22;23947;51.894;4.622;2023-02-04T01:01:41;7.50;1.40
38131;DHT22;23947;51.894;4.622;2023-02-04T01:04:07;7.50;1.40
38131;DHT22;23947;51.894;4.622;2023-02-04T01:06:33;7.50;1.40
38131;DHT22;23947;51.894;4.622;2023-02-04T01:08:59;7.50;1.40
38131;DHT22;23947;51.894;4.622;2023-02-04T01:11:26;7.50;1.40
38131;DHT22;23947;51.894;4.622;2023-02-04T01:13:51;7.50;1.40
38131;DHT22;23947;51.894;4.622;2023-02-04T01:16:17;7.50;1.40
38131;DHT22;23947;51.894;4.622;2023-02-04T01:18:42;7.50;1.40
38131;DHT22;23947;51.894;4.622;2023-02-04T01:21:08;7.50;1.40
38131;DHT22;23947;51.894;4.622;2023-02-04T01:23:34;7.50;1.40
38131;DHT22;23947;51.894;4.622;2023-02-04T01:25:59;7.50;1.40
38131;DHT22;23947;51.894;4.622;2023-02-04T01:28:25;7.50;1.40
38131;DHT22;23947;51.894;4.622;2023-02-04T01:30:50;7.40;1.40
38131;DHT22;23947;51.894;4.622;2023-02-04T01:33:15;7.50;1.40
38131;DHT22;23947;51.894;4.622;2023-02-04T01:35:41;7.40;1.40
38131;DHT22;23947;51.894;4.622;2023-02-04T01:38:07;7.40;1.40
38131;DHT22;23947;51.894;4.622;2023-02-04T01:40:32;7.50;1.40
38131;DHT22;23947;51.894;4.622;2023-02-04T01:42:58;7.50;1.40
38131;DHT22;23947;51.894;4.622;2023-02-04T01:45:23;7.50;1.40
38131;DHT22;23947;51.894;4.622;2023-02-04T01:47:49;7.50;1.40
38131;DHT22;23947;51.894;4.622;2023-02-04T01:50:15;7.50;1.40
38131;DHT22;23947;51.894;4.622;2023-02-04T01:52:41;7.50;1.40
38131;DHT22;23947;51.894;4.622;2023-02-04T01:55:15;7.50;1.40
38131;DHT22;23947;51.894;4.622;2023-02-04T01:57:40;7.60;1.40
38131;DHT22;23947;51.894;4.622;2023-02-04T02:00:11;7.60;1.40
38131;DHT22;23947;51.894;4.622;2023-02-04T02:02:58;7.60;1.40
38131;DHT22;23947;51.894;4.622;2023-02-04T02:05:24;7.60;1.40
38131;DHT22;23947;51.894;4.622;2023-02-04T02:07:52;7.60;1.40
38131;DHT22;23947;51.894;4.622;2023-02-04T02:10:18;7.60;1.40
38131;DHT22;23947;51.894;4.622;2023-02-04T02:12:44;7.60;1.40
38131;DHT22;23947;51.894;4.622;2023-02-04T02:15:10;7.60;1.40
38131;DHT22;23947;51.894;4.622;2023-02-04T02:17:36;7.60;1.40
38131;DHT22;23947;51.894;4.622;2023-02-04T02:20:02;7.60;1.40
38131;DHT22;23947;51.894;4.622;2023-02-04T02:22:29;7.60;1.40
38131;DHT22;23947;51.894;4.622;2023-02-04T02:24:57;7.60;1.40
38131;DHT22;23947;51.894;4.622;2023-02-04T02:27:23;7.60;1.40
38131;DHT22;23947;51.894;4.622;2023-02-04T02:29:48;7.60;1.40
38131;DHT22;23947;51.894;4.622;2023-02-04T02:32:14;7.50;1.40
38131;DHT22;23947;51.894;4.622;2023-02-04T02:34:40;7.60;1.40
38131;DHT22;23947;51.894;4.622;2023-02-04T02:37:06;7.60;1.40
38131;DHT22;23947;51.894;4.622;2023-02-04T02:39:33;7.60;1.40
38131;DHT22;23947;51.894;4.622;2023-02-04T02:41:59;7.60;1.40
38131;DHT22;23947;51.894;4.622;2023-02-04T02:44:24;7.50;1.40
38131;DHT22;23947;51.894;4.622;2023-02-04T02:46:50;7.50;1.40
38131;DHT22;23947;51.894;4.622;2023-02-04T02:49:16;7.60;1.40
38131;DHT22;23947;51.894;4.622;2023-02-04T02:51:43;7.60;1.40
38131;DHT22;23947;51.894;4.622;2023-02-04T02:56:43;7.60;1.40
38131;DHT22;23947;51.894;4.622;2023-02-04T02:59:15;7.70;1.40
38131;DHT22;23947;51.894;4.622;2023-02-04T03:01:41;7.70;1.40
38131;DHT22;23947;51.894;4.622;2023-02-04T03:04:07;7.70;1.40
38131;DHT22;23947;51.894;4.622;2023-02-04T03:06:33;7.60;1.40
38131;DHT22;23947;51.894;4.622;2023-02-04T03:08:58;7.70;1.40
38131;DHT22;23947;51.894;4.622;2023-02-04T03:11:24;7.70;1.40
38131;DHT22;23947;51.894;4.622;2023-02-04T03:13:53;7.70;1.40
38131;DHT22;23947;51.894;4.622;2023-02-04T03:16:19;7.70;1.40
38131;DHT22;23947;51.894;4.622;2023-02-04T03:18:45;7.60;1.40
38131;DHT22;23947;51.894;4.622;2023-02-04T03:21:11;7.60;1.40
38131;DHT22;23947;51.894;4.622;2023-02-04T03:23:36;7.60;1.40
38131;DHT22;23947;51.894;4.622;2023-02-04T03:26:02;7.60;1.40
38131;DHT22;23947;51.894;4.622;2023-02-04T03:28:28;7.60;1.40
38131;DHT22;23947;51.894;4.622;2023-02-04T03:30:55;7.60;1.40
38131;DHT22;23947;51.894;4.622;2023-02-04T03:33:22;7.60;1.40
38131;DHT22;23947;51.894;4.622;2023-02-04T03:35:48;7.60;1.40
38131;DHT22;23947;51.894;4.622;2023-02-04T03:38:13;7.50;1.40
38131;DHT22;23947;51.894;4.622;2023-02-04T03:40:39;7.50;1.40
38131;DHT22;23947;51.894;4.622;2023-02-04T03:43:04;7.50;1.40
38131;DHT22;23947;51.894;4.622;2023-02-04T03:45:30;7.40;1.40
38131;DHT22;23947;51.894;4.622;2023-02-04T03:47:55;7.40;1.40
38131;DHT22;23947;51.894;4.622;2023-02-04T03:50:21;7.40;1.40
38131;DHT22;23947;51.894;4.622;2023-02-04T03:52:46;7.40;1.40
38131;DHT22;23947;51.894;4.622;2023-02-04T03:55:14;7.40;1.40
38131;DHT22;23947;51.894;4.622;2023-02-04T03:57:39;7.40;1.40
38131;DHT22;23947;51.894;4.622;2023-02-04T04:00:05;7.30;1.40
38131;DHT22;23947;51.894;4.622;2023-02-04T04:02:31;7.30;1.40
38131;DHT22;23947;51.894;4.622;2023-02-04T04:04:56;7.30;1.40
38131;DHT22;23947;51.894;4.622;2023-02-04T04:07:22;7.30;1.40
38131;DHT22;23947;51.894;4.622;2023-02-04T04:09:47;7.30;1.40
38131;DHT22;23947;51.894;4.622;2023-02-04T04:12:13;7.40;1.40
38131;DHT22;23947;51.894;4.622;2023-02-04T04:14:38;7.40;1.40
38131;DHT22;23947;51.894;4.622;2023-02-04T04:17:04;7.40;1.40
38131;DHT22;23947;51.894;4.622;2023-02-04T04:19:29;7.40;1.40
38131;DHT22;23947;51.894;4.622;2023-02-04T04:21:56;7.40;1.40
38131;DHT22;23947;51.894;4.622;2023-02-04T04:24:21;7.40;1.40
38131;DHT22;23947;51.894;4.622;2023-02-04T04:26:47;7.40;1.40
38131;DHT22;23947;51.894;4.622;2023-02-04T04:29:12;7.50;1.40
38131;DHT22;23947;51.894;4.622;2023-02-04T04:31:38;7.40;1.40
38131;DHT22;23947;51.894;4.622;2023-02-04T04:34:03;7.40;1.40
38131;DHT22;23947;51.894;4.622;2023-02-04T04:36:29;7.40;1.40
38131;DHT22;23947;51.894;4.622;2023-02-04T04:38:54;7.40;1.40
38131;DHT22;23947;51.894;4.622;2023-02-04T04:41:20;7.40;1.40
38131;DHT22;23947;51.894;4.622;2023-02-04T04:43:45;7.40;1.40
38131;DHT22;23947;51.894;4.622;2023-02-04T04:46:11;7.40;1.40
38131;DHT22;23947;51.894;4.622;2023-02-04T04:48:36;7.40;1.40
38131;DHT22;23947;51.894;4.622;2023-02-04T04:51:02;7.40;1.40
38131;DHT22;23947;51.894;4.622;2023-02-04T04:53:27;7.40;1.40
38131;DHT22;23947;51.894;4.622;2023-02-04T04:55:53;7.40;1.40
38131;DHT22;23947;51.894;4.622;2023-02-04T04:58:18;7.40;1.40
38131;DHT22;23947;51.894;4.622;2023-02-04T05:00:44;7.30;1.40
38131;DHT22;23947;51.894;4.622;2023-02-04T05:03:09;7.20;1.40
38131;DHT22;23947;51.894;4.622;2023-02-04T05:05:35;7.20;1.40
38131;DHT22;23947;51.894;4.622;2023-02-04T05:08:04;7.30;1.40
38131;DHT22;23947;51.894;4.622;2023-02-04T05:10:29;7.20;1.40
38131;DHT22;23947;51.894;4.622;2023-02-04T05:12:55;7.30;1.40
38131;DHT22;23947;51.894;4.622;2023-02-04T05:15:20;7.30;1.40
38131;DHT22;23947;51.894;4.622;2023-02-04T05:17:46;7.30;1.40
38131;DHT22;23947;51.894;4.622;2023-02-04T05:20:11;7.30;1.40
38131;DHT22;23947;51.894;4.622;2023-02-04T05:22:37;7.40;1.40
38131;DHT22;23947;51.894;4.622;2023-02-04T05:25:03;7.30;1.40
38131;DHT22;23947;51.894;4.622;2023-02-04T05:27:28;7.40;1.40
38131;DHT22;23947;51.894;4.622;2023-02-04T05:29:54;7.40;1.40
38131;DHT22;23947;51.894;4.622;2023-02-04T05:32:19;7.40;1.40
38131;DHT22;23947;51.894;4.622;2023-02-04T05:34:45;7.30;1.40
38131;DHT22;23947;51.894;4.622;2023-02-04T05:37:10;7.40;1.40
38131;DHT22;23947;51.894;4.622;2023-02-04T05:39:36;7.40;1.40
38131;DHT22;23947;51.894;4.622;2023-02-04T05:42:01;7.40;1.40
38131;DHT22;23947;51.894;4.622;2023-02-04T05:44:27;7.50;1.40
38131;DHT22;23947;51.894;4.622;2023-02-04T05:46:52;7.50;1.40
38131;DHT22;23947;51.894;4.622;2023-02-04T05:49:18;7.50;1.40
38131;DHT22;23947;51.894;4.622;2023-02-04T05:51:43;7.50;1.40
38131;DHT22;23947;51.894;4.622;2023-02-04T05:54:09;7.50;1.40
38131;DHT22;23947;51.894;4.622;2023-02-04T05:56:34;7.50;1.40
38131;DHT22;23947;51.894;4.622;2023-02-04T05:59:00;7.50;1.40
38131;DHT22;23947;51.894;4.622;2023-02-04T06:01:25;7.60;1.40
38131;DHT22;23947;51.894;4.622;2023-02-04T06:03:51;7.60;1.40
38131;DHT22;23947;51.894;4.622;2023-02-04T06:06:16;7.60;1.40
38131;DHT22;23947;51.894;4.622;2023-02-04T06:08:42;7.60;1.40
38131;DHT22;23947;51.894;4.622;2023-02-04T06:11:07;7.60;1.40
38131;DHT22;23947;51.894;4.622;2023-02-04T06:13:33;7.50;1.40
38131;DHT22;23947;51.894;4.622;2023-02-04T06:15:58;7.60;1.40
38131;DHT22;23947;51.894;4.622;2023-02-04T06:18:24;7.50;1.40
38131;DHT22;23947;51.894;4.622;2023-02-04T06:20:49;7.60;1.40
38131;DHT22;23947;51.894;4.622;2023-02-04T06:23:15;7.60;1.40
38131;DHT22;23947;51.894;4.622;2023-02-04T06:25:40;7.60;1.40
38131;DHT22;23947;51.894;4.622;2023-02-04T06:28:06;7.60;1.40
38131;DHT22;23947;51.894;4.622;2023-02-04T06:30:31;7.60;1.40
38131;DHT22;23947;51.894;4.622;2023-02-04T06:33:02;7.60;1.40
38131;DHT22;23947;51.894;4.622;2023-02-04T06:35:28;7.60;1.40
38131;DHT22;23947;51.894;4.622;2023-02-04T06:37:53;7.70;1.40
38131;DHT22;23947;51.894;4.622;2023-02-04T06:40:19;7.70;1.40
38131;DHT22;23947;51.894;4.622;2023-02-04T06:42:44;7.70;1.40
38131;DHT22;23947;51.894;4.622;2023-02-04T06:45:10;7.70;1.40
38131;DHT22;23947;51.894;4.622;2023-02-04T06:47:35;7.70;1.40
38131;DHT22;23947;51.894;4.622;2023-02-04T06:50:01;7.70;1.40
38131;DHT22;23947;51.894;4.622;2023-02-04T06:52:26;7.70;1.40
38131;DHT22;23947;51.894;4.622;2023-02-04T06:54:52;7.70;1.40
38131;DHT22;23947;51.894;4.622;2023-02-04T06:57:17;7.70;1.40
38131;DHT22;23947;51.894;4.622;2023-02-04T06:59:43;7.70;1.40
38131;DHT22;23947;51.894;4.622;2023-02-04T07:02:09;7.70;1.40
38131;DHT22;23947;51.894;4.622;2023-02-04T07:04:35;7.70;1.40
38131;DHT22;23947;51.894;4.622;2023-02-04T07:07:01;7.70;1.40
38131;DHT22;23947;51.894;4.622;2023-02-04T07:09:26;7.70;1.40
38131;DHT22;23947;51.894;4.622;2023-02-04T07:11:52;7.70;1.40
38131;DHT22;23947;51.894;4.622;2023-02-04T07:14:18;7.60;1.40
38131;DHT22;23947;51.894;4.622;2023-02-04T07:16:43;7.60;1.40
38131;DHT22;23947;51.894;4.622;2023-02-04T07:19:09;7.60;1.40
38131;DHT22;23947;51.894;4.622;2023-02-04T07:21:34;7.60;1.40
38131;DHT22;23947;51.894;4.622;2023-02-04T07:24:00;7.60;1.40
38131;DHT22;23947;51.894;4.622;2023-02-04T07:26:26;7.60;1.40
38131;DHT22;23947;51.894;4.622;2023-02-04T07:28:51;7.60;1.40
38131;DHT22;23947;51.894;4.622;2023-02-04T07:31:17;7.60;1.40
38131;DHT22;23947;51.894;4.622;2023-02-04T07:33:42;7.70;1.40
38131;DHT22;23947;51.894;4.622;2023-02-04T07:36:08;7.70;1.40
38131;DHT22;23947;51.894;4.622;2023-02-04T07:38:33;7.70;1.40
38131;DHT22;23947;51.894;4.622;2023-02-04T07:40:59;7.70;1.40
38131;DHT22;23947;51.894;4.622;2023-02-04T07:43:24;7.70;1.40
38131;DHT22;23947;51.894;4.622;2023-02-04T07:45:50;7.70;1.40
38131;DHT22;23947;51.894;4.622;2023-02-04T07:48:15;7.70;1.40
38131;DHT22;23947;51.894;4.622;2023-02-04T07:50:41;7.70;1.40
38131;DHT22;23947;51.894;4.622;2023-02-04T07:53:06;7.70;1.40
38131;DHT22;23947;51.894;4.622;2023-02-04T07:55:32;7.70;1.40
38131;DHT22;23947;51.894;4.622;2023-02-04T07:57:57;7.70;1.40
38131;DHT22;23947;51.894;4.622;2023-02-04T08:00:23;7.70;1.40
38131;DHT22;23947;51.894;4.622;2023-02-04T08:02:48;7.70;1.40
38131;DHT22;23947;51.894;4.622;2023-02-04T08:05:14;7.70;1.40
38131;DHT22;23947;51.894;4.622;2023-02-04T08:07:40;7.70;1.40
38131;DHT22;23947;51.894;4.622;2023-02-04T08:10:06;7.80;1.40
38131;DHT22;23947;51.894;4.622;2023-02-04T08:12:32;7.80;1.40
38131;DHT22;23947;51.894;4.622;2023-02-04T08:14:57;7.80;1.40
38131;DHT22;23947;51.894;4.622;2023-02-04T08:17:23;7.80;1.40
38131;DHT22;23947;51.894;4.622;2023-02-04T08:19:48;7.90;1.40
38131;DHT22;23947;51.894;4.622;2023-02-04T08:22:14;7.90;1.40
38131;DHT22;23947;51.894;4.622;2023-02-04T08:24:40;7.80;1.40
38131;DHT22;23947;51.894;4.622;2023-02-04T08:27:05;7.80;1.40
38131;DHT22;23947;51.894;4.622;2023-02-04T08:29:31;7.90;1.40
38131;DHT22;23947;51.894;4.622;2023-02-04T08:31:56;7.90;1.40
38131;DHT22;23947;51.894;4.622;2023-02-04T08:34:22;8.00;1.40
38131;DHT22;23947;51.894;4.622;2023-02-04T08:36:47;8.00;1.40
38131;DHT22;23947;51.894;4.622;2023-02-04T08:39:13;8.00;1.40
38131;DHT22;23947;51.894;4.622;2023-02-04T08:41:38;8.10;1.40
38131;DHT22;23947;51.894;4.622;2023-02-04T08:44:04;8.10;1.40
38131;DHT22;23947;51.894;4.622;2023-02-04T08:46:29;8.10;1.40
38131;DHT22;23947;51.894;4.622;2023-02-04T08:48:55;8.20;1.40
38131;DHT22;23947;51.894;4.622;2023-02-04T08:51:20;8.20;1.40
38131;DHT22;23947;51.894;4.622;2023-02-04T08:53:46;8.20;1.40
38131;DHT22;23947;51.894;4.622;2023-02-04T08:56:12;8.20;1.40
38131;DHT22;23947;51.894;4.622;2023-02-04T08:58:41;8.20;1.40
38131;DHT22;23947;51.894;4.622;2023-02-04T09:01:07;8.30;1.40
38131;DHT22;23947;51.894;4.622;2023-02-04T09:03:32;8.30;1.40
38131;DHT22;23947;51.894;4.622;2023-02-04T09:05:58;8.30;1.40
38131;DHT22;23947;51.894;4.622;2023-02-04T09:08:23;8.40;1.40
38131;DHT22;23947;51.894;4.622;2023-02-04T09:10:49;8.40;1.40
38131;DHT22;23947;51.894;4.622;2023-02-04T09:13:14;8.40;1.40
38131;DHT22;23947;51.894;4.622;2023-02-04T09:15:40;8.40;1.40
38131;DHT22;23947;51.894;4.622;2023-02-04T09:18:05;8.40;1.40
38131;DHT22;23947;51.894;4.622;2023-02-04T09:20:40;8.50;1.40
38131;DHT22;23947;51.894;4.622;2023-02-04T09:23:06;8.50;1.40
38131;DHT22;23947;51.894;4.622;2023-02-04T09:25:34;8.50;1.40
38131;DHT22;23947;51.894;4.622;2023-02-04T09:27:59;8.60;1.40
38131;DHT22;23947;51.894;4.622;2023-02-04T09:30:25;8.70;1.40
38131;DHT22;23947;51.894;4.622;2023-02-04T09:32:50;8.70;1.40
38131;DHT22;23947;51.894;4.622;2023-02-04T09:35:16;8.70;1.40
38131;DHT22;23947;51.894;4.622;2023-02-04T09:37:41;8.80;1.40
38131;DHT22;23947;51.894;4.622;2023-02-04T09:40:08;8.90;1.40
38131;DHT22;23947;51.894;4.622;2023-02-04T09:42:34;8.90;1.40
38131;DHT22;23947;51.894;4.622;2023-02-04T09:45:00;8.90;1.40
38131;DHT22;23947;51.894;4.622;2023-02-04T09:47:27;8.90;1.40
38131;DHT22;23947;51.894;4.622;2023-02-04T09:49:53;9.00;1.40
38131;DHT22;23947;51.894;4.622;2023-02-04T09:52:39;9.00;1.40
38131;DHT22;23947;51.894;4.622;2023-02-04T09:55:08;9.10;1.40
38131;DHT22;23947;51.894;4.622;2023-02-04T09:57:36;9.10;1.40
38131;DHT22;23947;51.894;4.622;2023-02-04T10:00:05;9.10;1.40
38131;DHT22;23947;51.894;4.622;2023-02-04T10:02:30;9.20;1.40
38131;DHT22;23947;51.894;4.622;2023-02-04T10:04:56;9.30;1.40
38131;DHT22;23947;51.894;4.622;2023-02-04T10:07:22;9.50;1.40
38131;DHT22;23947;51.894;4.622;2023-02-04T10:09:50;9.60;1.40
38131;DHT22;23947;51.894;4.622;2023-02-04T10:12:16;9.60;1.40
38131;DHT22;23947;51.894;4.622;2023-02-04T10:14:41;9.60;1.40
38131;DHT22;23947;51.894;4.622;2023-02-04T10:17:07;9.60;1.40
38131;DHT22;23947;51.894;4.622;2023-02-04T10:19:34;9.70;1.40
38131;DHT22;23947;51.894;4.622;2023-02-04T10:21:59;9.90;1.40
38131;DHT22;23947;51.894;4.622;2023-02-04T10:24:27;10.00;1.40
38131;DHT22;23947;51.894;4.622;2023-02-04T10:27:05;10.10;1.40
38131;DHT22;23947;51.894;4.622;2023-02-04T10:29:31;10.20;1.40
38131;DHT22;23947;51.894;4.622;2023-02-04T10:31:56;10.30;1.40
38131;DHT22;23947;51.894;4.622;2023-02-04T10:34:32;10.30;1.40
38131;DHT22;23947;51.894;4.622;2023-02-04T10:36:57;10.40;1.40
38131;DHT22;23947;51.894;4.622;2023-02-04T10:39:24;10.50;1.40
38131;DHT22;23947;51.894;4.622;2023-02-04T10:41:51;10.50;1.40
38131;DHT22;23947;51.894;4.622;2023-02-04T10:44:25;10.50;1.40
38131;DHT22;23947;51.894;4.622;2023-02-04T10:47:03;10.50;1.40
38131;DHT22;23947;51.894;4.622;2023-02-04T10:49:59;10.40;1.40
38131;DHT22;23947;51.894;4.622;2023-02-04T10:52:33;10.50;1.40
38131;DHT22;23947;51.894;4.622;2023-02-04T10:55:00;10.50;1.40
38131;DHT22;23947;51.894;4.622;2023-02-04T10:57:27;10.50;1.40
38131;DHT22;23947;51.894;4.622;2023-02-04T11:01:01;10.50;1.40
38131;DHT22;23947;51.894;4.622;2023-02-04T11:09:01;10.40;1.40
38131;DHT22;23947;51.894;4.622;2023-02-04T11:11:28;10.50;1.40
38131;DHT22;23947;51.894;4.622;2023-02-04T11:18:49;10.20;1.40
38131;DHT22;23947;51.894;4.622;2023-02-04T11:26:38;9.80;1.40
38131;DHT22;23947;51.894;4.622;2023-02-04T11:29:09;9.80;1.40
38131;DHT22;23947;51.894;4.622;2023-02-04T11:34:10;9.70;1.40
38131;DHT22;23947;51.894;4.622;2023-02-04T11:39:39;10.00;1.40
38131;DHT22;23947;51.894;4.622;2023-02-04T11:42:48;9.90;1.40
38131;DHT22;23947;51.894;4.622;2023-02-04T11:44:57;9.90;1.40
38131;DHT22;23947;51.894;4.622;2023-02-04T11:47:24;9.80;1.40
38131;DHT22;23947;51.894;4.622;2023-02-04T11:49:54;9.70;1.40
38131;DHT22;23947;51.894;4.622;2023-02-04T11:52:20;9.70;1.40
38131;DHT22;23947;51.894;4.622;2023-02-04T11:54:58;9.60;1.40
38131;DHT22;23947;51.894;4.622;2023-02-04T11:57:24;9.60;1.40
38131;DHT22;23947;51.894;4.622;2023-02-04T11:59:50;9.60;1.40
38131;DHT22;23947;51.894;4.622;2023-02-04T12:02:17;9.50;1.40
38131;DHT22;23947;51.894;4.622;2023-02-04T12:04:54;9.60;1.40
38131;DHT22;23947;51.894;4.622;2023-02-04T12:07:20;9.60;1.40
38131;DHT22;23947;51.894;4.622;2023-02-04T12:09:46;9.60;1.40
38131;DHT22;23947;51.894;4.622;2023-02-04T12:12:21;9.60;1.40
38131;DHT22;23947;51.894;4.622;2023-02-04T12:14:54;9.70;1.40
38131;DHT22;23947;51.894;4.622;2023-02-04T12:17:20;9.60;1.40
38131;DHT22;23947;51.894;4.622;2023-02-04T12:19:46;9.60;1.40
38131;DHT22;23947;51.894;4.622;2023-02-04T12:22:11;9.60;1.40
38131;DHT22;23947;51.894;4.622;2023-02-04T12:24:38;9.70;1.40
38131;DHT22;23947;51.894;4.622;2023-02-04T12:27:07;9.70;1.40
38131;DHT22;23947;51.894;4.622;2023-02-04T12:29:32;9.70;1.40
38131;DHT22;23947;51.894;4.622;2023-02-04T12:31:58;9.70;1.40
38131;DHT22;23947;51.894;4.622;2023-02-04T12:34:23;9.70;1.40
38131;DHT22;23947;51.894;4.622;2023-02-04T12:36:49;9.70;1.40
38131;DHT22;23947;51.894;4.622;2023-02-04T12:39:14;9.70;1.40
38131;DHT22;23947;51.894;4.622;2023-02-04T12:41:40;9.80;1.40
38131;DHT22;23947;51.894;4.622;2023-02-04T12:44:05;9.80;1.40
38131;DHT22;23947;51.894;4.622;2023-02-04T12:46:31;9.70;1.40
38131;DHT22;23947;51.894;4.622;2023-02-04T12:48:56;9.70;1.40
38131;DHT22;23947;51.894;4.622;2023-02-04T12:51:22;9.70;1.40
38131;DHT22;23947;51.894;4.622;2023-02-04T12:53:48;9.70;1.40
38131;DHT22;23947;51.894;4.622;2023-02-04T12:56:14;9.70;1.40
38131;DHT22;23947;51.894;4.622;2023-02-04T12:58:39;9.70;1.40
38131;DHT22;23947;51.894;4.622;2023-02-04T13:01:05;9.70;1.40
38131;DHT22;23947;51.894;4.622;2023-02-04T13:03:31;9.70;1.40
38131;DHT22;23947;51.894;4.622;2023-02-04T13:05:56;9.80;1.40
38131;DHT22;23947;51.894;4.622;2023-02-04T13:08:22;9.80;1.40
38131;DHT22;23947;51.894;4.622;2023-02-04T13:10:47;9.80;1.40
38131;DHT22;23947;51.894;4.622;2023-02-04T13:13:19;9.80;1.40
38131;DHT22;23947;51.894;4.622;2023-02-04T13:15:45;9.80;1.40
38131;DHT22;23947;51.894;4.622;2023-02-04T13:18:11;9.80;1.40
38131;DHT22;23947;51.894;4.622;2023-02-04T13:20:36;9.80;1.40
38131;DHT22;23947;51.894;4.622;2023-02-04T13:23:02;9.80;1.40
38131;DHT22;23947;51.894;4.622;2023-02-04T13:25:27;9.80;1.40
38131;DHT22;23947;51.894;4.622;2023-02-04T13:27:53;9.80;1.40
38131;DHT22;23947;51.894;4.622;2023-02-04T13:30:18;9.80;1.40
38131;DHT22;23947;51.894;4.622;2023-02-04T13:32:44;9.80;1.40
38131;DHT22;23947;51.894;4.622;2023-02-04T13:35:10;9.80;1.40
38131;DHT22;23947;51.894;4.622;2023-02-04T13:37:35;9.80;1.40
38131;DHT22;23947;51.894;4.622;2023-02-04T13:40:02;10.10;1.40
38131;DHT22;23947;51.894;4.622;2023-02-04T13:42:28;10.00;1.40
38131;DHT22;23947;51.894;4.622;2023-02-04T13:44:53;9.90;1.40
38131;DHT22;23947;51.894;4.622;2023-02-04T13:47:19;9.90;1.40
38131;DHT22;23947;51.894;4.622;2023-02-04T13:49:45;9.90;1.40
38131;DHT22;23947;51.894;4.622;2023-02-04T13:52:10;9.80;1.40
38131;DHT22;23947;51.894;4.622;2023-02-04T13:54:36;9.80;1.40
38131;DHT22;23947;51.894;4.622;2023-02-04T13:57:03;9.80;1.40
38131;DHT22;23947;51.894;4.622;2023-02-04T13:59:29;9.80;1.40
38131;DHT22;23947;51.894;4.622;2023-02-04T14:01:55;9.80;1.40
38131;DHT22;23947;51.894;4.622;2023-02-04T14:04:20;9.80;1.40
38131;DHT22;23947;51.894;4.622;2023-02-04T14:06:46;9.70;1.40
38131;DHT22;23947;51.894;4.622;2023-02-04T14:09:12;9.70;1.40
38131;DHT22;23947;51.894;4.622;2023-02-04T14:11:38;9.70;1.40
38131;DHT22;23947;51.894;4.622;2023-02-04T14:14:04;9.60;1.40
38131;DHT22;23947;51.894;4.622;2023-02-04T14:16:30;9.70;1.40
38131;DHT22;23947;51.894;4.622;2023-02-04T14:18:55;9.60;1.40
38131;DHT22;23947;51.894;4.622;2023-02-04T14:21:21;9.60;1.40
38131;DHT22;23947;51.894;4.622;2023-02-04T14:23:47;9.60;1.40
38131;DHT22;23947;51.894;4.622;2023-02-04T14:26:13;9.60;1.40
38131;DHT22;23947;51.894;4.622;2023-02-04T14:28:38;9.60;1.40
38131;DHT22;23947;51.894;4.622;2023-02-04T14:31:04;9.60;1.40
38131;DHT22;23947;51.894;4.622;2023-02-04T14:33:29;9.60;1.40
38131;DHT22;23947;51.894;4.622;2023-02-04T14:35:55;9.60;1.40
38131;DHT22;23947;51.894;4.622;2023-02-04T14:38:20;9.60;1.40
38131;DHT22;23947;51.894;4.622;2023-02-04T14:40:46;9.60;1.40
38131;DHT22;23947;51.894;4.622;2023-02-04T14:43:11;9.60;1.40
38131;DHT22;23947;51.894;4.622;2023-02-04T14:45:37;9.60;1.40
38131;DHT22;23947;51.894;4.622;2023-02-04T14:48:04;9.70;1.40
38131;DHT22;23947;51.894;4.622;2023-02-04T14:50:29;9.60;1.40
38131;DHT22;23947;51.894;4.622;2023-02-04T14:52:55;9.60;1.40
38131;DHT22;23947;51.894;4.622;2023-02-04T14:55:24;9.60;1.40
38131;DHT22;23947;51.894;4.622;2023-02-04T14:57:49;9.60;1.40
38131;DHT22;23947;51.894;4.622;2023-02-04T15:00:15;9.60;1.40
38131;DHT22;23947;51.894;4.622;2023-02-04T15:02:40;9.60;1.40
38131;DHT22;23947;51.894;4.622;2023-02-04T15:05:07;9.60;1.40
38131;DHT22;23947;51.894;4.622;2023-02-04T15:07:33;9.60;1.40
38131;DHT22;23947;51.894;4.622;2023-02-04T15:09:59;9.60;1.40
38131;DHT22;23947;51.894;4.622;2023-02-04T15:12:24;9.60;1.40
38131;DHT22;23947;51.894;4.622;2023-02-04T15:14:50;9.60;1.40
38131;DHT22;23947;51.894;4.622;2023-02-04T15:17:15;9.60;1.40
38131;DHT22;23947;51.894;4.622;2023-02-04T15:19:41;9.60;1.40
38131;DHT22;23947;51.894;4.622;2023-02-04T15:22:06;9.60;1.40
38131;DHT22;23947;51.894;4.622;2023-02-04T15:24:32;9.60;1.40
38131;DHT22;23947;51.894;4.622;2023-02-04T15:26:58;9.60;1.40
38131;DHT22;23947;51.894;4.622;2023-02-04T15:29:23;9.60;1.40
38131;DHT22;23947;51.894;4.622;2023-02-04T15:31:49;9.60;1.40
38131;DHT22;23947;51.894;4.622;2023-02-04T15:34:14;9.50;1.40
38131;DHT22;23947;51.894;4.622;2023-02-04T15:36:40;9.50;1.40
38131;DHT22;23947;51.894;4.622;2023-02-04T15:39:05;9.50;1.40
38131;DHT22;23947;51.894;4.622;2023-02-04T15:41:31;9.50;1.40
38131;DHT22;23947;51.894;4.622;2023-02-04T15:43:56;9.50;1.40
38131;DHT22;23947;51.894;4.622;2023-02-04T15:46:22;9.40;1.40
38131;DHT22;23947;51.894;4.622;2023-02-04T15:48:47;9.30;1.40
38131;DHT22;23947;51.894;4.622;2023-02-04T15:51:13;9.40;1.40
38131;DHT22;23947;51.894;4.622;2023-02-04T15:53:39;9.30;1.40
38131;DHT22;23947;51.894;4.622;2023-02-04T15:56:04;9.40;1.40
38131;DHT22;23947;51.894;4.622;2023-02-04T15:58:30;9.40;1.40
38131;DHT22;23947;51.894;4.622;2023-02-04T16:00:56;9.40;1.40
38131;DHT22;23947;51.894;4.622;2023-02-04T16:03:21;9.40;1.40
38131;DHT22;23947;51.894;4.622;2023-02-04T16:05:47;9.40;1.40
38131;DHT22;23947;51.894;4.622;2023-02-04T16:08:12;9.40;1.40
38131;DHT22;23947;51.894;4.622;2023-02-04T16:10:38;9.40;1.40
38131;DHT22;23947;51.894;4.622;2023-02-04T16:13:03;9.30;1.40
38131;DHT22;23947;51.894;4.622;2023-02-04T16:15:29;9.30;1.40
38131;DHT22;23947;51.894;4.622;2023-02-04T16:17:54;9.30;1.40